• Join FlightAware (Why Join?)
  • Login
  • US Flag 
01:07PM EDT


 

Airport Tracker/Info


-or-


 

Live Flight TrackerFlight Track Log ✈ ASQ5740 ✈ 10-Nov-2013 ✈ KIAD - KGSP

Flight Track Log - Related Links

Times and Time Zones

All times are in EST time to prevent confusion due to time zone crossing. See the ASQ5740 flight status page for this flight to view local times or setup timezone preferences in your user account.

Time Position Orientation Groundspeed Altitude Reporting Facility
EST Latitude Longitude Course Direction KTS MPH feet Rate Location/Type
12:56PM 38.9500 -77.5000 238° Southwest 166 191 1,700  Level Potomac TRACON
12:57PM 38.9000 -77.5500 218° Southwest 247 284 4,100 2,880 Climbing Potomac TRACON
12:58PM 38.7353 -77.7282 185° South  Level Estimated
12:58PM 38.8333 -77.5500 180° South 253 291 7,600  Level Potomac TRACON
12:59PM 38.6645 -77.8173 270° West  Level Estimated
01:00PM 38.5936 -77.9061 238° Southwest  Level Estimated
01:00PM 38.6492 -77.5642 183° South 296 341 12,200  Level Washington Center
01:01PM 38.5226 -77.9948 238° Southwest  Level Estimated
01:01PM 38.5575 -77.5642 180° South 322 371 14,200  Level Washington Center
01:02PM 38.4531 -77.5669 181° South 354 407 14,500 300 Climbing Washington Center
01:03PM 38.3692 -77.6044 199° South 365 420 14,900 420 Climbing Washington Center
01:04PM 38.3069 -77.7033 231° Southwest 350 403 15,400 780 Climbing Washington Center
01:05PM 38.2425 -77.8044 231° Southwest 355 409 16,500 1,320 Climbing Washington Center
01:06PM 38.1803 -77.9003 230° Southwest 360 414 18,000 1,320 Climbing Washington Center
01:07PM 38.1200 -77.9936 231° Southwest 360 414 19,100 1,020 Climbing Washington Center
01:08PM 38.0578 -78.0864 230° Southwest 354 407 20,100 1,020 Climbing Washington Center
01:09PM 37.9950 -78.1897 232° Southwest 341 392 21,200 1,020 Climbing Washington Center
01:10PM 37.9347 -78.2747 228° Southwest 350 403 22,200 960 Climbing Washington Center
01:11PM 37.8678 -78.3722 229° Southwest 355 409 23,100 780 Climbing Washington Center
01:12PM 37.7989 -78.4669 227° Southwest 360 414 23,800 540 Climbing Washington Center
01:13PM 37.7297 -78.5642 228° Southwest 365 420 24,300 540 Climbing Washington Center
01:14PM 37.6539 -78.6739 229° Southwest 378 435 24,900 480 Climbing Washington Center
01:15PM 37.5825 -78.7733 228° Southwest 378 435 25,300 420 Climbing Washington Center
01:16PM 37.5131 -78.8750 229° Southwest 378 435 25,800 480 Climbing Washington Center
01:17PM 37.4414 -78.9739 228° Southwest 378 435 26,300 480 Climbing Washington Center
01:18PM 37.3678 -79.0753 228° Southwest 383 441 26,800 480 Climbing Washington Center
01:19PM 37.2936 -79.1789 228° Southwest 395 455 27,300 480 Climbing Washington Center
01:20PM 37.2283 -79.2725 229° Southwest 400 460 27,800 300 Climbing Washington Center
01:21PM 37.1561 -79.3783 229° Southwest 400 460 28,000 60 Climbing Washington Center
01:22PM 37.0839 -79.4867 230° Southwest 400 460 28,000  Level Washington Center
01:23PM 37.0114 -79.5950 230° Southwest 405 466 28,000  Level Washington Center
01:25PM 36.8317 -79.8556 229° Southwest 410 472 28,000  Level Atlanta Center
01:26PM 36.7642 -79.9550 230° Southwest 419 482 28,000  Level Atlanta Center
01:27PM 36.6864 -80.0678 229° Southwest 424 488 28,000  Level Atlanta Center
01:28PM 36.6086 -80.1803 229° Southwest 424 488 28,000  Level Atlanta Center
01:29PM 36.5264 -80.2850 226° Southwest 424 488 28,000 -600 Level Atlanta Center
01:30PM 36.3903 -80.3300 195° South 424 488 26,800 -1,140 Descending Atlanta Center
01:31PM 36.2644 -80.3769 197° South 448 516 25,800 -1,020 Descending Atlanta Center
01:32PM 36.1406 -80.4186 195° South 466 536 24,800 -960 Descending Atlanta Center
01:33PM 36.0103 -80.4603 195° South 471 542 23,900 -960 Descending Atlanta Center
01:34PM 35.9050 -80.5008 197° South 465 535 22,900 -1,020 Descending Atlanta Center
01:35PM 35.7850 -80.5369 194° South 452 520 21,900 -1,080 Descending Atlanta Center
01:36PM 35.7028 -80.6503 228° Southwest 405 466 20,800 -1,020 Descending Atlanta Center
01:37PM 35.6469 -80.7497 235° Southwest 393 452 19,900 -1,080 Descending Atlanta Center
01:38PM 35.5794 -80.8775 237° Southwest 398 458 18,700 -1,380 Descending Atlanta Center
01:39PM 35.5519 -80.9450 243° Southwest 401 461 17,800 -1,740 Descending Atlanta Center
01:39PM 35.5219 -80.9947 233° Southwest 403 464 17,000 -1,980 Descending Atlanta Center
01:39PM 35.5203 -81.0100 262° West 397 457 16,800 3,000 Descending Atlanta Center
01:40PM 35.4600 -81.1039 232° Southwest 403 464 20,000 -1,800 Climbing Atlanta Center
01:40PM 35.4603 -81.1194 271° West 388 447 15,000 -5,040 Descending Atlanta Center
01:41PM 35.4167 -81.2100 239° Southwest 397 457 15,000  Level Atlanta Center
01:41PM 35.4044 -81.2283 231° Southwest 375 432 15,000 -840 Level Atlanta Center
01:42PM 35.3606 -81.3214 240° Southwest 392 451 14,200 -1,200 Descending Atlanta Center
01:42PM 35.3464 -81.3397 227° Southwest 371 427 13,800 -1,320 Descending Atlanta Center
01:43PM 35.3003 -81.4203 235° Southwest 387 445 12,900 -1,200 Descending Atlanta Center
01:43PM 35.2861 -81.4486 239° Southwest 376 433 12,600 -1,140 Descending Atlanta Center
01:44PM 35.2481 -81.5211 237° Southwest 373 429 11,800 -1,260 Descending Atlanta Center
01:45PM 35.1917 -81.6294 238° Southwest 361 415 10,300 -900 Descending Atlanta Center
01:46PM 35.1394 -81.7250 236° Southwest 351 404 10,000 -180 Descending Atlanta Center
01:47PM 35.0869 -81.8253 237° Southwest 351 404 10,000 -300 Level Atlanta Center
01:48PM 35.0594 -81.9150 249° West 298 343 9,500 -1,320 Descending Atlanta Center
01:49PM 35.0461 -81.9964 259° West 286 329 7,400 -2,040 Descending Atlanta Center
01:50PM 35.0203 -82.0758 248° West 265 305 5,500 -1,860 Descending Atlanta Center
01:51PM 34.9900 -82.1372 239° Southwest 239 275 3,700 -1,020 Descending Atlanta Center
01:52PM 34.9639 -82.2039 244° Southwest 232 267 3,500 -240 Descending Atlanta Center